EYSA/SQQ METAR and TAF weather

Enter ICAO airport designator
Station Type Date Time Source
EYSA METAR 2022/11/27 09:20 UTC NOAA

EYSA 270920Z 12005KT 5000 BR OVC003 M02/M03 Q1027 NOSIG


Station Type Date Time Source
EYSA Decoded METAR 2022/11/27 09:20 UTC NOAA

Siauliai Intl./Mil., Lithuania (EYSA) 55-53-38N 023-23-42E
Nov 27, 2022 - 04:20 AM EST / 2022.11.27 0920 UTC
Wind: from the ESE (120 degrees) at 6 MPH (5 KT):0
Visibility: 3 mile(s):0
Sky conditions: overcast
Weather: mist
Temperature: 28 F (-2 C)
Windchill: 21 F (-6 C):1
Dew Point: 26 F (-3 C)
Relative Humidity: 92%
Pressure (altimeter): 30.33 in. Hg (1027 hPa)
ob: EYSA 270920Z 12005KT 5000 BR OVC003 M02/M03 Q1027 NOSIG
cycle: 9

Station Type Date Time Source
EYSA TAF 2022/11/08 12:03 UTC NOAA

TAF TAF EYSA 081100Z 0812/0824 22012KT 5000 BR OVC005
TEMPO 0812/0818 3000 DZ OVC003
TEMPO 0818/0824 1500 OVC003

Example: see airport list